createdAt,value
2018-12-16T00:00:12.930Z,85.42
2018-12-16T00:01:12.837Z,85.41
2018-12-16T00:02:13.029Z,85.34
2018-12-16T00:03:13.513Z,85.34
2018-12-16T00:04:13.323Z,85.37
2018-12-16T00:05:13.890Z,85.35
2018-12-16T00:06:13.639Z,85.31
2018-12-16T00:07:13.955Z,85.31
2018-12-16T00:08:14.276Z,85.39
2018-12-16T00:09:14.883Z,85.33
2018-12-16T00:10:15.284Z,85.37
2018-12-16T00:11:15.172Z,85.29
2018-12-16T00:12:15.431Z,85.32
2018-12-16T00:13:15.749Z,85.34
2018-12-16T00:14:16.014Z,85.22
2018-12-16T00:15:16.694Z,85.24
2018-12-16T00:16:16.865Z,85.25
2018-12-16T00:17:17.228Z,85.22
2018-12-16T00:18:17.679Z,85.23
2018-12-16T00:19:18.314Z,85.13
2018-12-16T00:20:19.081Z,85.29
2018-12-16T00:21:19.355Z,85.23
2018-12-16T00:22:19.296Z,85.19
2018-12-16T00:23:20.386Z,85.24
2018-12-16T00:24:20.086Z,85.11
2018-12-16T00:25:20.402Z,85.13
2018-12-16T00:26:20.617Z,85.08
2018-12-16T00:27:21.009Z,85.03
2018-12-16T00:28:21.447Z,85.06
2018-12-16T00:30:21.663Z,84.95
2018-12-16T00:31:21.769Z,84.92
2018-12-16T00:32:22.273Z,84.90
2018-12-16T00:33:21.469Z,84.89
2018-12-16T00:34:21.970Z,84.75
2018-12-16T00:35:21.927Z,84.66
2018-12-16T00:36:21.696Z,84.69
2018-12-16T00:37:22.166Z,84.70
2018-12-16T00:38:22.087Z,84.69
2018-12-16T00:39:22.382Z,84.58
2018-12-16T00:40:22.396Z,84.56
2018-12-16T00:41:22.650Z,84.64
2018-12-16T00:42:22.676Z,84.57
2018-12-16T00:43:22.712Z,84.50
2018-12-16T00:44:22.825Z,84.67
2018-12-16T00:45:23.190Z,84.54
2018-12-16T00:46:23.567Z,84.50
2018-12-16T00:47:23.679Z,84.58
2018-12-16T00:48:23.805Z,84.34
2018-12-16T00:49:23.956Z,84.43
2018-12-16T00:50:23.936Z,84.41
2018-12-16T00:51:23.930Z,84.37
2018-12-16T00:52:24.414Z,84.39
2018-12-16T00:53:24.839Z,84.43
2018-12-16T00:54:25.229Z,84.43
2018-12-16T00:55:25.537Z,84.47
2018-12-16T00:56:25.950Z,84.51
2018-12-16T00:57:26.423Z,84.47
2018-12-16T00:58:26.620Z,84.51
2018-12-16T00:59:26.855Z,84.46
2018-12-16T01:00:27.170Z,84.13
2018-12-16T01:01:27.788Z,84.25
2018-12-16T01:02:27.725Z,84.27
2018-12-16T01:03:28.044Z,84.21
2018-12-16T01:04:28.373Z,84.18
2018-12-16T01:05:28.714Z,84.24
2018-12-16T01:06:28.995Z,84.21
2018-12-16T01:07:29.394Z,84.15
2018-12-16T01:08:30.155Z,84.17
2018-12-16T01:09:30.182Z,84.22
2018-12-16T01:10:30.494Z,84.12
2018-12-16T01:11:30.763Z,84.09
2018-12-16T01:12:31.186Z,84.06
2018-12-16T01:13:31.489Z,84.00
2018-12-16T01:14:31.973Z,83.77
2018-12-16T01:15:32.672Z,83.77
2018-12-16T01:16:32.624Z,83.83
2018-12-16T01:17:32.980Z,83.72
2018-12-16T01:18:34.158Z,83.81
2018-12-16T01:19:34.226Z,83.77
2018-12-16T01:20:34.173Z,83.68
2018-12-16T01:21:33.898Z,83.55
2018-12-16T01:22:34.390Z,83.63
2018-12-16T01:23:35.221Z,83.61
2018-12-16T01:24:35.528Z,83.62
2018-12-16T01:25:35.831Z,83.49
2018-12-16T01:26:36.219Z,83.37
2018-12-16T01:27:36.267Z,83.37
2018-12-16T01:28:36.788Z,83.37
2018-12-16T01:29:36.888Z,83.28
2018-12-16T01:30:36.900Z,83.31
2018-12-16T01:31:37.287Z,83.26
2018-12-16T01:32:37.158Z,83.23
2018-12-16T01:33:37.378Z,83.27
2018-12-16T01:34:37.609Z,83.27
2018-12-16T01:35:37.712Z,83.02
2018-12-16T01:36:37.892Z,82.79
2018-12-16T01:37:38.023Z,82.93
2018-12-16T01:38:38.042Z,82.93
2018-12-16T01:39:38.144Z,82.74
2018-12-16T01:40:38.383Z,82.78
2018-12-16T01:41:38.668Z,82.71
2018-12-16T01:42:38.824Z,82.71
2018-12-16T01:43:38.946Z,82.48
2018-12-16T01:44:39.051Z,82.60
2018-12-16T01:45:39.235Z,82.21
2018-12-16T01:46:39.163Z,82.15
2018-12-16T01:47:39.490Z,81.94
2018-12-16T01:48:39.810Z,82.14
2018-12-16T01:50:40.170Z,82.11
2018-12-16T01:51:40.441Z,82.21
2018-12-16T01:52:40.881Z,82.08
2018-12-16T01:53:41.509Z,81.93
2018-12-16T01:54:41.320Z,81.86
2018-12-16T01:55:41.851Z,81.65
2018-12-16T01:56:41.605Z,81.83
2018-12-16T01:57:41.833Z,81.86
2018-12-16T01:58:42.222Z,81.88
2018-12-16T01:59:42.610Z,81.83
2018-12-16T02:00:42.863Z,81.82
2018-12-16T02:01:43.178Z,81.77
2018-12-16T02:02:43.276Z,81.63
2018-12-16T02:03:43.599Z,81.83
2018-12-16T02:04:43.962Z,81.80
2018-12-16T02:05:44.493Z,81.39
2018-12-16T02:06:44.361Z,81.53
2018-12-16T02:07:44.756Z,81.52
2018-12-16T02:08:45.101Z,81.43
2018-12-16T02:09:45.508Z,81.29
2018-12-16T02:10:46.044Z,81.38
2018-12-16T02:11:45.789Z,81.22
2018-12-16T02:12:46.213Z,81.38
2018-12-16T02:13:46.638Z,81.49
2018-12-16T02:14:46.979Z,81.42
2018-12-16T02:15:47.446Z,81.33
2018-12-16T02:16:47.819Z,81.30
2018-12-16T02:17:48.467Z,81.17
2018-12-16T02:18:48.885Z,81.34
2018-12-16T02:19:49.606Z,81.37
2018-12-16T02:20:50.025Z,81.37
2018-12-16T02:21:50.351Z,81.40
2018-12-16T02:22:56.660Z,81.24
2018-12-16T02:23:51.270Z,81.09
2018-12-16T02:24:51.482Z,81.31
2018-12-16T02:25:51.900Z,81.07
2018-12-16T02:26:52.011Z,81.08
2018-12-16T02:27:51.905Z,81.09
2018-12-16T02:28:52.085Z,80.84
2018-12-16T02:29:52.380Z,80.80
2018-12-16T02:30:52.482Z,80.80
2018-12-16T02:31:52.584Z,80.76
2018-12-16T02:32:52.763Z,80.95
2018-12-16T02:33:52.820Z,80.93
2018-12-16T02:34:52.870Z,80.88
2018-12-16T02:35:53.048Z,80.87
2018-12-16T02:36:53.210Z,80.83
2018-12-16T02:37:53.429Z,80.80
2018-12-16T02:38:53.647Z,80.81
2018-12-16T02:39:53.779Z,80.73
2018-12-16T02:40:53.870Z,80.70
2018-12-16T02:41:54.009Z,80.73
2018-12-16T02:42:54.063Z,80.76
2018-12-16T02:43:54.099Z,80.82
2018-12-16T02:44:54.037Z,80.60
2018-12-16T02:45:54.861Z,80.70
2018-12-16T02:46:54.586Z,80.62
2018-12-16T02:47:55.011Z,80.71
2018-12-16T02:48:55.239Z,80.67
2018-12-16T02:49:55.687Z,80.71
2018-12-16T02:50:56.085Z,80.70
2018-12-16T02:52:56.410Z,80.44
2018-12-16T02:53:56.871Z,80.72
2018-12-16T02:54:57.356Z,80.74
2018-12-16T02:55:57.803Z,80.67
2018-12-16T02:56:58.300Z,80.67
2018-12-16T02:57:58.853Z,80.66
2018-12-16T02:58:58.802Z,80.72
2018-12-16T03:00:59.195Z,80.68
2018-12-16T03:01:59.537Z,80.67
2018-12-16T03:02:59.898Z,80.54
2018-12-16T03:04:00.150Z,80.73
2018-12-16T03:05:00.560Z,80.75
2018-12-16T03:06:01.320Z,80.72
2018-12-16T03:07:01.979Z,80.65
2018-12-16T03:08:01.906Z,80.67
2018-12-16T03:09:02.071Z,80.59
2018-12-16T03:10:02.503Z,80.64
2018-12-16T03:11:02.888Z,80.51
2018-12-16T03:12:03.169Z,80.53
2018-12-16T03:13:03.770Z,80.54
2018-12-16T03:14:03.992Z,80.50
2018-12-16T03:15:04.205Z,80.48
2018-12-16T03:16:04.208Z,80.47
2018-12-16T03:17:04.393Z,80.51
2018-12-16T03:18:04.630Z,80.47
2018-12-16T03:19:04.745Z,80.35
2018-12-16T03:20:04.849Z,80.48
2018-12-16T03:21:05.050Z,80.46
2018-12-16T03:22:05.484Z,80.50
2018-12-16T03:23:11.983Z,80.49
2018-12-16T03:24:06.002Z,80.51
2018-12-16T03:25:05.880Z,80.38
2018-12-16T03:26:06.114Z,80.38
2018-12-16T03:27:06.030Z,80.37
2018-12-16T03:28:06.743Z,80.23
2018-12-16T03:29:06.808Z,80.32
2018-12-16T03:30:06.956Z,80.20
2018-12-16T03:31:07.051Z,80.19
2018-12-16T03:32:06.975Z,80.24
2018-12-16T03:33:07.330Z,80.35
2018-12-16T03:34:07.424Z,80.59
2018-12-16T03:35:07.528Z,80.50
2018-12-16T03:36:07.381Z,80.30
2018-12-16T03:37:07.898Z,80.32
2018-12-16T03:38:08.026Z,80.30
2018-12-16T03:39:07.755Z,80.36
2018-12-16T03:40:08.107Z,80.10
2018-12-16T03:41:08.656Z,80.27
2018-12-16T03:42:08.588Z,80.28
2018-12-16T03:43:09.131Z,80.32
2018-12-16T03:44:09.315Z,80.33
2018-12-16T03:45:09.201Z,80.28
2018-12-16T03:46:09.629Z,80.27
2018-12-16T03:47:10.201Z,80.30
2018-12-16T03:48:10.178Z,80.29
2018-12-16T03:49:10.387Z,80.09
2018-12-16T03:50:10.848Z,80.17
2018-12-16T03:51:11.540Z,80.17
2018-12-16T03:52:11.518Z,80.18
2018-12-16T03:53:19.461Z,80.21
2018-12-16T03:54:12.029Z,80.09
2018-12-16T03:55:12.629Z,80.03
2018-12-16T03:56:12.428Z,79.94
2018-12-16T03:57:12.789Z,79.97
2018-12-16T03:58:13.185Z,80.05
2018-12-16T03:59:13.529Z,80.04
2018-12-16T04:00:13.778Z,80.03
2018-12-16T04:01:14.058Z,80.01
2018-12-16T04:02:14.292Z,80.14
2018-12-16T04:03:14.625Z,79.90
2018-12-16T04:04:14.854Z,80.04
2018-12-16T04:05:15.762Z,79.95
2018-12-16T04:06:15.715Z,79.90
2018-12-16T04:07:16.173Z,79.95
2018-12-16T04:08:16.548Z,79.95
2018-12-16T04:09:16.856Z,79.85
2018-12-16T04:10:17.628Z,79.86
2018-12-16T04:11:17.389Z,79.90
2018-12-16T04:12:17.846Z,80.11
2018-12-16T04:13:18.815Z,80.10
2018-12-16T04:14:19.028Z,80.12
2018-12-16T04:15:20.070Z,80.24
2018-12-16T04:16:19.859Z,80.18
2018-12-16T04:17:20.182Z,80.04
2018-12-16T04:18:20.583Z,79.94
2018-12-16T04:19:20.962Z,79.89
2018-12-16T04:20:21.099Z,79.97
2018-12-16T04:21:21.221Z,79.91
2018-12-16T04:22:21.444Z,80.05
2018-12-16T04:23:27.388Z,79.95
2018-12-16T04:24:21.285Z,80.00
2018-12-16T04:25:21.885Z,79.95
2018-12-16T04:26:22.072Z,80.04
2018-12-16T04:27:22.332Z,79.94
2018-12-16T04:28:22.418Z,80.04
2018-12-16T04:29:22.563Z,80.10
2018-12-16T04:30:22.585Z,80.06
2018-12-16T04:31:22.605Z,80.02
2018-12-16T04:32:22.769Z,80.09
2018-12-16T04:33:22.869Z,80.10
2018-12-16T04:34:23.006Z,80.12
2018-12-16T04:35:22.865Z,80.08
2018-12-16T04:36:23.558Z,79.98
2018-12-16T04:37:23.666Z,79.82
2018-12-16T04:38:23.756Z,79.87
2018-12-16T04:39:23.836Z,79.87
2018-12-16T04:40:23.835Z,79.70
2018-12-16T04:41:24.659Z,79.88
2018-12-16T04:42:24.479Z,80.13
2018-12-16T04:43:24.781Z,80.00
2018-12-16T04:44:25.171Z,80.09
2018-12-16T04:45:25.530Z,80.14
2018-12-16T04:46:25.809Z,80.13
2018-12-16T04:47:26.216Z,79.97
2018-12-16T04:48:26.592Z,79.75
2018-12-16T04:49:26.864Z,79.74
2018-12-16T04:50:27.345Z,79.71
2018-12-16T04:51:27.885Z,79.75
2018-12-16T04:52:27.952Z,79.73
2018-12-16T04:53:35.110Z,79.77
2018-12-16T04:54:28.269Z,79.70
2018-12-16T04:55:28.515Z,79.75
2018-12-16T04:56:28.852Z,79.77
2018-12-16T04:57:29.271Z,79.76
2018-12-16T04:58:29.570Z,79.82
2018-12-16T04:59:29.881Z,80.05
2018-12-16T05:00:30.195Z,80.37
2018-12-16T05:01:30.513Z,81.09
2018-12-16T05:02:30.749Z,81.41
2018-12-16T05:03:31.185Z,82.24
2018-12-16T05:04:31.458Z,82.44
2018-12-16T05:05:31.777Z,83.86
2018-12-16T05:06:32.131Z,84.61
2018-12-16T05:08:32.629Z,85.52
2018-12-16T05:09:33.215Z,89.10
2018-12-16T05:10:33.625Z,89.71
2018-12-16T05:11:34.661Z,90.99
2018-12-16T05:12:34.057Z,91.70
2018-12-16T05:13:34.669Z,94.76
2018-12-16T05:14:34.784Z,96.54
2018-12-16T05:15:35.293Z,98.55
2018-12-16T05:16:35.197Z,96.12
2018-12-16T05:17:35.767Z,96.42
2018-12-16T05:18:35.620Z,96.48
2018-12-16T05:19:35.932Z,97.41
2018-12-16T05:20:36.247Z,97.69
2018-12-16T05:21:36.561Z,100.00
2018-12-16T05:22:36.884Z,100.00
2018-12-16T05:23:41.825Z,99.18
2018-12-16T05:24:37.152Z,99.68
2018-12-16T05:25:37.340Z,100.00
2018-12-16T05:26:37.499Z,100.00
2018-12-16T05:27:37.658Z,100.00
2018-12-16T05:28:37.710Z,100.00
2018-12-16T05:29:37.760Z,100.00
2018-12-16T05:30:37.909Z,100.00
2018-12-16T05:31:37.950Z,100.00
2018-12-16T05:32:38.103Z,100.00
2018-12-16T05:33:38.134Z,100.00
2018-12-16T05:34:38.294Z,100.00
2018-12-16T05:35:38.385Z,100.00
2018-12-16T05:36:38.569Z,100.00
2018-12-16T05:37:38.775Z,100.00
2018-12-16T05:38:39.100Z,100.00
2018-12-16T05:39:39.184Z,100.00
2018-12-16T05:40:39.151Z,100.00
2018-12-16T05:41:39.527Z,100.00
2018-12-16T05:42:39.788Z,100.00
2018-12-16T05:43:40.325Z,100.00
2018-12-16T05:44:40.132Z,100.00
2018-12-16T05:45:40.586Z,100.00
2018-12-16T05:46:40.949Z,100.00
2018-12-16T05:47:41.158Z,100.00
2018-12-16T05:48:41.482Z,100.00
2018-12-16T05:49:41.907Z,100.00
2018-12-16T05:50:42.243Z,100.00
2018-12-16T05:51:42.514Z,100.00
2018-12-16T05:52:42.865Z,100.00
2018-12-16T05:53:48.511Z,100.00
2018-12-16T05:54:43.432Z,100.00
2018-12-16T05:55:43.936Z,100.00
2018-12-16T05:56:43.781Z,100.00
2018-12-16T05:57:44.572Z,100.00
2018-12-16T05:58:44.493Z,100.00
2018-12-16T05:59:45.041Z,100.00
2018-12-16T06:00:45.049Z,100.00
2018-12-16T06:01:44.826Z,100.00
2018-12-16T06:02:45.237Z,100.00
2018-12-16T06:03:45.584Z,100.00
2018-12-16T06:04:46.097Z,100.00
2018-12-16T06:05:46.527Z,100.00
2018-12-16T06:06:46.812Z,100.00
2018-12-16T06:07:47.338Z,100.00
2018-12-16T06:08:47.148Z,100.00
2018-12-16T06:09:47.564Z,100.00
2018-12-16T06:10:47.767Z,100.00
2018-12-16T06:11:48.672Z,100.00
2018-12-16T06:12:49.390Z,100.00
2018-12-16T06:13:49.721Z,100.00
2018-12-16T06:14:49.715Z,100.00
2018-12-16T06:15:50.738Z,100.00
2018-12-16T06:16:50.343Z,100.00
2018-12-16T06:17:50.749Z,100.00
2018-12-16T06:18:51.176Z,100.00
2018-12-16T06:19:51.550Z,100.00
2018-12-16T06:20:51.592Z,100.00
2018-12-16T06:21:51.808Z,100.00
2018-12-16T06:22:51.808Z,100.00
2018-12-16T06:23:55.485Z,100.00
2018-12-16T06:24:52.487Z,100.00
2018-12-16T06:25:52.617Z,100.00
2018-12-16T06:26:52.633Z,100.00
2018-12-16T06:27:52.764Z,100.00
2018-12-16T06:28:52.808Z,100.00
2018-12-16T06:29:52.855Z,100.00
2018-12-16T06:30:52.919Z,100.00
2018-12-16T06:31:52.952Z,100.00
2018-12-16T06:32:53.100Z,100.00
2018-12-16T06:33:53.125Z,100.00
2018-12-16T06:34:53.309Z,100.00
2018-12-16T06:35:53.407Z,100.00
2018-12-16T06:36:53.132Z,100.00
2018-12-16T06:37:53.812Z,100.00
2018-12-16T06:38:53.785Z,100.00
2018-12-16T06:39:54.332Z,100.00
2018-12-16T06:40:54.256Z,100.00
2018-12-16T06:41:55.352Z,100.00
2018-12-16T06:42:55.042Z,100.00
2018-12-16T06:43:55.375Z,100.00
2018-12-16T06:44:55.715Z,100.00
2018-12-16T06:45:56.158Z,100.00
2018-12-16T06:46:56.514Z,100.00
2018-12-16T06:47:57.112Z,100.00
2018-12-16T06:48:56.926Z,100.00
2018-12-16T06:49:57.235Z,100.00
2018-12-16T06:50:57.639Z,100.00
2018-12-16T06:51:57.973Z,100.00
2018-12-16T06:54:02.467Z,100.00
2018-12-16T06:54:58.493Z,100.00
2018-12-16T06:55:58.853Z,100.00
2018-12-16T06:56:59.125Z,100.00
2018-12-16T06:57:59.443Z,100.00
2018-12-16T06:58:59.780Z,100.00
2018-12-16T07:00:00.056Z,100.00
2018-12-16T07:01:00.648Z,100.00
2018-12-16T07:02:00.398Z,100.00
2018-12-16T07:03:03.122Z,100.00
2018-12-16T07:04:01.091Z,100.00
2018-12-16T07:05:01.359Z,100.00
2018-12-16T07:06:01.600Z,100.00
2018-12-16T07:07:02.112Z,100.00
2018-12-16T07:08:01.833Z,100.00
2018-12-16T07:09:02.320Z,100.00
2018-12-16T07:10:02.645Z,100.00
2018-12-16T07:11:02.917Z,100.00
2018-12-16T07:12:03.190Z,100.00
2018-12-16T07:13:03.239Z,100.00
2018-12-16T07:14:03.426Z,100.00
2018-12-16T07:15:04.019Z,100.00
2018-12-16T07:16:04.135Z,100.00
2018-12-16T07:17:04.047Z,100.00
2018-12-16T07:18:04.662Z,100.00
2018-12-16T07:19:04.675Z,100.00
2018-12-16T07:20:04.885Z,100.00
2018-12-16T07:21:05.022Z,100.00
2018-12-16T07:22:05.734Z,100.00
2018-12-16T07:23:06.125Z,100.00
2018-12-16T07:24:09.394Z,100.00
2018-12-16T07:25:06.621Z,100.00
2018-12-16T07:26:07.095Z,100.00
2018-12-16T07:27:07.083Z,100.00
2018-12-16T07:28:07.154Z,100.00
2018-12-16T07:29:07.140Z,100.00
2018-12-16T07:30:07.577Z,100.00
2018-12-16T07:31:08.467Z,100.00
2018-12-16T07:33:07.962Z,100.00
2018-12-16T07:34:08.238Z,100.00
2018-12-16T07:35:08.504Z,100.00
2018-12-16T07:36:09.131Z,100.00
2018-12-16T07:37:09.793Z,100.00
2018-12-16T07:38:09.368Z,100.00
2018-12-16T07:39:09.449Z,100.00
2018-12-16T07:40:09.742Z,100.00
2018-12-16T07:41:10.384Z,100.00
2018-12-16T07:42:10.259Z,100.00
2018-12-16T07:43:10.583Z,100.00
2018-12-16T07:44:10.958Z,100.00
2018-12-16T07:45:11.326Z,100.00
2018-12-16T07:46:11.538Z,100.00
2018-12-16T07:47:12.080Z,100.00
2018-12-16T07:48:11.842Z,100.00
2018-12-16T07:49:12.256Z,100.00
2018-12-16T07:50:12.653Z,100.00
2018-12-16T07:51:12.902Z,100.00
2018-12-16T07:52:13.040Z,100.00
2018-12-16T07:53:13.322Z,100.00
2018-12-16T07:54:16.127Z,100.00
2018-12-16T07:55:13.824Z,100.00
2018-12-16T07:56:14.138Z,100.00
2018-12-16T07:57:14.468Z,100.00
2018-12-16T07:58:14.883Z,100.00
2018-12-16T07:59:15.113Z,100.00
2018-12-16T08:00:15.994Z,100.00
2018-12-16T08:01:15.811Z,100.00
2018-12-16T08:02:16.132Z,100.00
2018-12-16T08:03:16.678Z,100.00
2018-12-16T08:04:16.402Z,100.00
2018-12-16T08:05:16.668Z,100.00
2018-12-16T08:06:16.928Z,100.00
2018-12-16T08:07:17.214Z,100.00
2018-12-16T08:08:17.491Z,100.00
2018-12-16T08:09:17.996Z,100.00
2018-12-16T08:10:17.757Z,100.00
2018-12-16T08:11:18.828Z,100.00
2018-12-16T08:12:18.632Z,100.00
2018-12-16T08:13:19.260Z,100.00
2018-12-16T08:14:19.294Z,100.00
2018-12-16T08:15:19.685Z,100.00
2018-12-16T08:16:19.989Z,100.00
2018-12-16T08:17:20.509Z,100.00
2018-12-16T08:18:21.244Z,100.00
2018-12-16T08:19:20.831Z,100.00
2018-12-16T08:20:20.845Z,100.00
2018-12-16T08:21:20.840Z,100.00
2018-12-16T08:22:21.092Z,100.00
2018-12-16T08:23:21.364Z,100.00
2018-12-16T08:24:23.317Z,100.00
2018-12-16T08:25:21.494Z,100.00
2018-12-16T08:26:21.691Z,100.00
2018-12-16T08:27:21.801Z,100.00
2018-12-16T08:28:22.000Z,100.00
2018-12-16T08:29:21.918Z,100.00
2018-12-16T08:30:22.342Z,100.00
2018-12-16T08:31:22.618Z,100.00
2018-12-16T08:32:22.652Z,100.00
2018-12-16T08:33:22.901Z,100.00
2018-12-16T08:34:23.041Z,100.00
2018-12-16T08:35:23.193Z,100.00
2018-12-16T08:36:23.394Z,100.00
2018-12-16T08:37:23.485Z,100.00
2018-12-16T08:38:23.459Z,100.00
2018-12-16T08:39:24.239Z,100.00
2018-12-16T08:40:24.059Z,100.00
2018-12-16T08:41:24.247Z,100.00
2018-12-16T08:42:24.479Z,100.00
2018-12-16T08:43:25.067Z,100.00
2018-12-16T08:44:25.105Z,100.00
2018-12-16T08:45:24.927Z,100.00
2018-12-16T08:46:25.393Z,100.00
2018-12-16T08:47:32.918Z,100.00
2018-12-16T08:48:26.462Z,100.00
2018-12-16T08:49:26.760Z,100.00
2018-12-16T08:50:26.627Z,100.00
2018-12-16T08:51:27.038Z,100.00
2018-12-16T08:52:27.245Z,100.00
2018-12-16T08:53:27.537Z,100.00
2018-12-16T08:54:30.175Z,100.00
2018-12-16T08:55:28.053Z,100.00
2018-12-16T08:56:28.389Z,100.00
2018-12-16T08:57:29.035Z,100.00
2018-12-16T08:58:28.972Z,100.00
2018-12-16T08:59:29.503Z,100.00
2018-12-16T09:00:29.323Z,100.00
2018-12-16T09:01:29.691Z,100.00
2018-12-16T09:02:29.998Z,100.00
2018-12-16T09:03:30.361Z,100.00
2018-12-16T09:04:30.600Z,100.00
2018-12-16T09:05:30.879Z,100.00
2018-12-16T09:06:31.195Z,100.00
2018-12-16T09:07:37.256Z,100.00
2018-12-16T09:08:31.720Z,100.00
2018-12-16T09:09:32.306Z,100.00
2018-12-16T09:10:34.337Z,100.00
2018-12-16T09:11:32.695Z,100.00
2018-12-16T09:12:32.631Z,100.00
2018-12-16T09:13:32.937Z,100.00
2018-12-16T09:14:34.199Z,100.00
2018-12-16T09:15:34.308Z,100.00
2018-12-16T09:16:34.615Z,100.00
2018-12-16T09:17:34.527Z,100.00
2018-12-16T09:18:35.344Z,100.00
2018-12-16T09:19:35.592Z,100.00
2018-12-16T09:20:35.985Z,100.00
2018-12-16T09:21:36.312Z,100.00
2018-12-16T09:22:36.395Z,100.00
2018-12-16T09:23:35.977Z,100.00
2018-12-16T09:24:37.422Z,100.00
2018-12-16T09:25:37.748Z,100.00
2018-12-16T09:26:36.315Z,100.00
2018-12-16T09:27:37.102Z,100.00
2018-12-16T09:28:37.438Z,100.00
2018-12-16T09:29:37.480Z,100.00
2018-12-16T09:30:37.694Z,100.00
2018-12-16T09:31:37.836Z,100.00
2018-12-16T09:32:37.880Z,100.00
2018-12-16T09:33:37.914Z,100.00
2018-12-16T09:34:38.113Z,100.00
2018-12-16T09:35:38.227Z,100.00
2018-12-16T09:36:38.326Z,100.00
2018-12-16T09:37:38.428Z,100.00
2018-12-16T09:38:38.515Z,100.00
2018-12-16T09:39:38.578Z,100.00
2018-12-16T09:40:38.724Z,100.00
2018-12-16T09:41:38.812Z,100.00
2018-12-16T09:42:38.915Z,100.00
2018-12-16T09:43:38.922Z,100.00
2018-12-16T09:44:39.408Z,100.00
2018-12-16T09:45:39.754Z,100.00
2018-12-16T09:46:39.976Z,100.00
2018-12-16T09:47:40.457Z,100.00
2018-12-16T09:48:40.487Z,100.00
2018-12-16T09:49:40.572Z,100.00
2018-12-16T09:50:40.412Z,100.00
2018-12-16T09:51:40.707Z,100.00
2018-12-16T09:52:41.021Z,100.00
2018-12-16T09:53:41.366Z,100.00
2018-12-16T09:54:44.351Z,100.00
2018-12-16T09:55:42.112Z,100.00
2018-12-16T09:56:42.532Z,100.00
2018-12-16T09:57:43.041Z,100.00
2018-12-16T09:58:42.794Z,100.00
2018-12-16T09:59:43.315Z,100.00
2018-12-16T10:00:43.127Z,100.00
2018-12-16T10:01:43.471Z,100.00
2018-12-16T10:02:43.940Z,100.00
2018-12-16T10:03:44.399Z,100.00
2018-12-16T10:05:44.694Z,100.00
2018-12-16T10:06:45.185Z,100.00
2018-12-16T10:07:45.535Z,100.00
2018-12-16T10:08:45.968Z,100.00
2018-12-16T10:09:46.596Z,100.00
2018-12-16T10:10:46.531Z,100.00
2018-12-16T10:11:46.774Z,100.00
2018-12-16T10:12:47.086Z,100.00
2018-12-16T10:13:47.408Z,100.00
2018-12-16T10:14:47.713Z,100.00
2018-12-16T10:15:48.421Z,100.00
2018-12-16T10:16:48.921Z,100.00
2018-12-16T10:17:49.764Z,100.00
2018-12-16T10:18:49.868Z,100.00
2018-12-16T10:19:49.734Z,100.00
2018-12-16T10:20:50.606Z,100.00
2018-12-16T10:21:50.913Z,100.00
2018-12-16T10:22:51.123Z,100.00
2018-12-16T10:23:51.398Z,100.00
2018-12-16T10:24:51.743Z,100.00
2018-12-16T10:25:51.359Z,100.00
2018-12-16T10:26:51.855Z,100.00
2018-12-16T10:27:52.229Z,100.00
2018-12-16T10:28:52.309Z,100.00
2018-12-16T10:29:52.427Z,100.00
2018-12-16T10:30:52.451Z,100.00
2018-12-16T10:31:52.576Z,100.00
2018-12-16T10:32:52.676Z,100.00
2018-12-16T10:33:52.703Z,100.00
2018-12-16T10:34:52.725Z,100.00
2018-12-16T10:35:52.749Z,100.00
2018-12-16T10:36:52.847Z,100.00
2018-12-16T10:37:52.882Z,100.00
2018-12-16T10:38:52.902Z,100.00
2018-12-16T10:39:52.930Z,100.00
2018-12-16T10:40:53.015Z,100.00
2018-12-16T10:41:53.120Z,100.00
2018-12-16T10:42:53.402Z,100.00
2018-12-16T10:43:53.482Z,100.00
2018-12-16T10:44:53.730Z,100.00
2018-12-16T10:45:53.960Z,100.00
2018-12-16T10:46:53.941Z,100.00
2018-12-16T10:47:54.024Z,100.00
2018-12-16T10:48:54.069Z,100.00
2018-12-16T10:49:55.140Z,100.00
2018-12-16T10:50:54.818Z,100.00
2018-12-16T10:51:54.975Z,100.00
2018-12-16T10:52:55.116Z,100.00
2018-12-16T10:53:55.246Z,100.00
2018-12-16T10:54:58.500Z,100.00
2018-12-16T10:55:55.181Z,100.00
2018-12-16T10:56:55.343Z,100.00
2018-12-16T10:57:55.100Z,100.00
2018-12-16T10:58:55.449Z,100.00
2018-12-16T10:59:55.805Z,100.00
2018-12-16T11:00:56.364Z,100.00
2018-12-16T11:01:56.937Z,100.00
2018-12-16T11:02:56.797Z,100.00
2018-12-16T11:03:57.284Z,100.00
2018-12-16T11:04:57.624Z,100.00
2018-12-16T11:05:57.948Z,100.00
2018-12-16T11:06:58.254Z,100.00
2018-12-16T11:07:58.496Z,100.00
2018-12-16T11:08:59.084Z,100.00
2018-12-16T11:09:58.923Z,100.00
2018-12-16T11:10:59.287Z,100.00
2018-12-16T11:11:59.656Z,100.00
2018-12-16T11:13:00.097Z,100.00
2018-12-16T11:14:00.454Z,100.00
2018-12-16T11:15:00.830Z,100.00
2018-12-16T11:16:01.567Z,100.00
2018-12-16T11:17:01.763Z,100.00
2018-12-16T11:18:02.166Z,100.00
2018-12-16T11:19:02.271Z,100.00
2018-12-16T11:20:02.707Z,100.00
2018-12-16T11:21:02.931Z,100.00
2018-12-16T11:22:02.926Z,100.00
2018-12-16T11:23:04.151Z,100.00
2018-12-16T11:24:04.371Z,100.00
2018-12-16T11:25:05.865Z,100.00
2018-12-16T11:26:04.927Z,100.00
2018-12-16T11:27:05.109Z,100.00
2018-12-16T11:28:05.319Z,100.00
2018-12-16T11:29:05.431Z,100.00
2018-12-16T11:30:05.364Z,100.00
2018-12-16T11:31:05.754Z,100.00
2018-12-16T11:32:05.558Z,100.00
2018-12-16T11:33:05.636Z,100.00
2018-12-16T11:34:06.382Z,100.00
2018-12-16T11:35:06.681Z,100.00
2018-12-16T11:36:06.792Z,100.00
2018-12-16T11:37:07.068Z,100.00
2018-12-16T11:38:07.216Z,100.00
2018-12-16T11:39:07.328Z,100.00
2018-12-16T11:40:07.546Z,100.00
2018-12-16T11:41:07.332Z,100.00
2018-12-16T11:42:07.604Z,100.00
2018-12-16T11:43:07.677Z,100.00
2018-12-16T11:44:07.726Z,100.00
2018-12-16T11:45:07.842Z,100.00
2018-12-16T11:46:07.976Z,100.00
2018-12-16T11:47:07.840Z,100.00
2018-12-16T11:48:08.122Z,100.00
2018-12-16T11:49:08.482Z,100.00
2018-12-16T11:50:09.353Z,100.00
2018-12-16T11:51:09.656Z,100.00
2018-12-16T11:52:09.594Z,100.00
2018-12-16T11:53:10.051Z,100.00
2018-12-16T11:54:10.637Z,100.00
2018-12-16T11:55:12.990Z,100.00
2018-12-16T11:56:10.650Z,100.00
2018-12-16T11:57:10.984Z,100.00
2018-12-16T11:58:11.320Z,100.00
2018-12-16T11:59:11.698Z,100.00
2018-12-16T12:00:12.379Z,100.00
2018-12-16T12:01:12.223Z,100.00
2018-12-16T12:02:12.500Z,100.00
2018-12-16T12:03:12.753Z,100.00
2018-12-16T12:04:13.251Z,100.00
2018-12-16T12:05:14.051Z,100.00
2018-12-16T12:06:13.894Z,100.00
2018-12-16T12:07:14.455Z,100.00
2018-12-16T12:08:14.386Z,100.00
2018-12-16T12:09:14.743Z,100.00
2018-12-16T12:10:15.514Z,100.00
2018-12-16T12:11:15.255Z,100.00
2018-12-16T12:12:15.579Z,100.00
2018-12-16T12:13:16.148Z,100.00
2018-12-16T12:14:16.028Z,100.00
2018-12-16T12:15:16.401Z,100.00
2018-12-16T12:16:16.727Z,100.00
2018-12-16T12:17:17.107Z,100.00
2018-12-16T12:18:17.595Z,100.00
2018-12-16T12:19:17.896Z,100.00
2018-12-16T12:20:19.281Z,100.00
2018-12-16T12:21:19.590Z,100.00
2018-12-16T12:22:20.019Z,100.00
2018-12-16T12:23:20.527Z,100.00
2018-12-16T12:24:20.786Z,100.00
2018-12-16T12:25:21.065Z,100.00
2018-12-16T12:26:21.264Z,100.00
2018-12-16T12:27:21.893Z,100.00
2018-12-16T12:28:22.005Z,100.00
2018-12-16T12:29:21.364Z,100.00
2018-12-16T12:30:22.195Z,100.00
2018-12-16T12:31:22.470Z,100.00
2018-12-16T12:32:22.541Z,100.00
2018-12-16T12:33:22.745Z,100.00
2018-12-16T12:34:22.911Z,100.00
2018-12-16T12:35:23.017Z,100.00
2018-12-16T12:36:23.067Z,100.00
2018-12-16T12:37:23.291Z,100.00
2018-12-16T12:38:23.386Z,100.00
2018-12-16T12:39:23.470Z,100.00
2018-12-16T12:40:23.573Z,100.00
2018-12-16T12:41:23.735Z,100.00
2018-12-16T12:42:23.878Z,100.00
2018-12-16T12:43:25.050Z,100.00
2018-12-16T12:44:25.201Z,100.00
2018-12-16T12:45:24.594Z,100.00
2018-12-16T12:46:24.932Z,100.00
2018-12-16T12:47:25.373Z,100.00
2018-12-16T12:48:25.851Z,100.00
2018-12-16T12:49:26.162Z,100.00